createdAt,value
2023-05-09T00:02:16.435Z,87.67
2023-05-09T00:12:20.516Z,88.52
2023-05-09T00:22:22.508Z,87.28
2023-05-09T00:32:46.290Z,87.25
2023-05-09T00:42:48.211Z,88.38
2023-05-09T00:52:51.529Z,88.48
2023-05-09T01:02:55.646Z,89.12
2023-05-09T01:13:18.875Z,89.00
2023-05-09T01:24:15.869Z,89.73
2023-05-09T01:34:18.728Z,89.14
2023-05-09T01:44:22.918Z,89.90
2023-05-09T01:54:41.958Z,90.31
2023-05-09T02:04:45.447Z,90.04
2023-05-09T02:14:51.299Z,90.73
2023-05-09T02:25:07.973Z,90.69
2023-05-09T02:35:12.269Z,90.00
2023-05-09T02:45:22.673Z,88.94
2023-05-09T02:55:24.706Z,90.43
2023-05-09T03:05:27.699Z,88.67
2023-05-09T03:15:29.661Z,89.39
2023-05-09T03:25:31.698Z,89.49
2023-05-09T03:35:33.548Z,87.33
2023-05-09T03:45:36.631Z,86.06
2023-05-09T03:55:38.498Z,83.33
2023-05-09T04:05:40.998Z,82.11
2023-05-09T04:15:43.073Z,71.62
2023-05-09T04:25:54.543Z,67.01
2023-05-09T04:35:58.010Z,62.78
2023-05-09T04:46:00.041Z,62.36
2023-05-09T04:56:08.195Z,57.19
2023-05-09T05:06:14.329Z,54.84
2023-05-09T05:16:38.207Z,54.67
2023-05-09T05:27:00.484Z,51.94
2023-05-09T05:37:05.752Z,49.14
2023-05-09T05:47:07.782Z,49.12
2023-05-09T05:57:09.724Z,45.45
2023-05-09T06:07:14.179Z,46.74
2023-05-09T06:17:16.766Z,42.55
2023-05-09T06:27:18.846Z,39.07
2023-05-09T06:37:22.781Z,37.94
2023-05-09T06:47:24.822Z,35.55
2023-05-09T06:57:26.813Z,34.70
2023-05-09T07:07:28.777Z,34.52
2023-05-09T07:17:55.800Z,31.91
2023-05-09T07:27:58.474Z,31.48
2023-05-09T07:38:00.374Z,30.38
2023-05-09T07:48:04.623Z,29.74
2023-05-09T07:58:07.784Z,30.60
2023-05-09T08:08:09.755Z,29.23
2023-05-09T08:18:16.481Z,28.20
2023-05-09T08:28:40.040Z,28.44
2023-05-09T08:38:42.012Z,28.07
2023-05-09T08:48:45.535Z,28.76
2023-05-09T08:58:49.205Z,28.29
2023-05-09T09:08:51.723Z,27.65
2023-05-09T09:19:19.204Z,27.79
2023-05-09T09:29:23.435Z,27.09
2023-05-09T09:39:25.480Z,27.37
2023-05-09T09:49:27.587Z,26.78
2023-05-09T09:59:31.616Z,26.90
2023-05-09T10:09:35.311Z,26.93
2023-05-09T10:19:46.305Z,28.28
2023-05-09T10:30:01.913Z,28.35
2023-05-09T10:40:25.991Z,26.94
2023-05-09T10:50:28.720Z,28.53
2023-05-09T11:00:55.157Z,28.55
2023-05-09T11:11:27.052Z,27.93
2023-05-09T11:21:36.236Z,27.76
2023-05-09T11:32:08.656Z,29.13
2023-05-09T11:42:11.301Z,27.61
2023-05-09T11:52:13.287Z,27.13
2023-05-09T12:02:15.247Z,26.66
2023-05-09T12:12:21.938Z,28.78
2023-05-09T12:22:53.049Z,27.38
2023-05-09T12:32:56.447Z,28.06
2023-05-09T12:43:03.761Z,27.04
2023-05-09T12:53:08.448Z,25.86
2023-05-09T13:03:26.201Z,27.55
2023-05-09T13:13:29.454Z,28.28
2023-05-09T13:23:31.408Z,27.22
2023-05-09T13:33:42.240Z,26.27
2023-05-09T13:43:58.311Z,27.95
2023-05-09T13:54:09.904Z,29.66
2023-05-09T14:04:18.804Z,28.73
2023-05-09T14:14:42.544Z,28.41
2023-05-09T14:24:59.625Z,28.46
2023-05-09T14:35:01.798Z,28.40
2023-05-09T14:45:04.874Z,27.32
2023-05-09T14:55:09.333Z,28.01
2023-05-09T15:05:19.566Z,27.48
2023-05-09T15:15:25.991Z,30.06
2023-05-09T15:25:28.243Z,28.66
2023-05-09T15:35:45.827Z,28.54
2023-05-09T15:45:48.502Z,28.56
2023-05-09T15:55:50.732Z,29.50
2023-05-09T16:05:53.239Z,28.40
2023-05-09T16:15:55.266Z,29.99
2023-05-09T16:25:58.305Z,30.22
2023-05-09T16:36:00.270Z,30.16
2023-05-09T16:46:03.557Z,30.77
2023-05-09T16:56:06.427Z,31.00
2023-05-09T17:06:21.808Z,30.72
2023-05-09T17:16:32.956Z,31.36
2023-05-09T17:26:35.331Z,30.06
2023-05-09T17:36:52.530Z,31.76
2023-05-09T17:46:55.632Z,32.10
2023-05-09T17:57:01.652Z,33.85
2023-05-09T18:07:05.362Z,34.48
2023-05-09T18:17:33.116Z,35.90
2023-05-09T18:27:35.227Z,37.81
2023-05-09T18:37:37.686Z,39.26
2023-05-09T18:47:39.740Z,40.71
2023-05-09T18:57:42.919Z,40.53
2023-05-09T19:07:49.275Z,40.59
2023-05-09T19:17:56.175Z,41.29
2023-05-09T19:28:12.582Z,42.52
2023-05-09T19:38:21.141Z,43.79
2023-05-09T19:48:25.092Z,45.45
2023-05-09T19:58:29.706Z,45.37
2023-05-09T20:18:55.832Z,47.00
2023-05-09T20:29:02.110Z,48.51
2023-05-09T20:39:04.768Z,48.66
2023-05-09T20:49:08.504Z,48.20
2023-05-09T20:59:14.594Z,50.43
2023-05-09T21:09:16.524Z,51.82
2023-05-09T21:19:18.493Z,51.90
2023-05-09T21:29:21.495Z,51.71
2023-05-09T21:39:23.321Z,52.25
2023-05-09T21:49:32.319Z,53.99
2023-05-09T21:59:40.122Z,53.32
2023-05-09T22:09:44.076Z,53.87
2023-05-09T22:19:47.009Z,54.59
2023-05-09T22:29:55.645Z,54.82
2023-05-09T22:40:01.582Z,56.53
2023-05-09T22:50:04.980Z,56.53
2023-05-09T23:00:13.656Z,57.67
2023-05-09T23:10:27.124Z,58.28
2023-05-09T23:20:29.160Z,59.83
2023-05-09T23:30:33.065Z,60.30
2023-05-09T23:40:34.953Z,59.50
2023-05-09T23:50:36.920Z,59.75
